createdAt,value
2019-04-07T00:02:19.980Z,16.80
2019-04-07T00:04:49.736Z,17.87
2019-04-07T00:07:19.632Z,17.97
2019-04-07T00:09:49.300Z,18.37
2019-04-07T00:12:20.262Z,19.70
2019-04-07T00:14:50.444Z,17.23
2019-04-07T00:17:20.652Z,19.30
2019-04-07T00:19:50.426Z,16.67
2019-04-07T00:22:20.061Z,17.83
2019-04-07T00:24:49.753Z,17.80
2019-04-07T00:27:21.420Z,17.03
2019-04-07T00:29:51.141Z,17.67
2019-04-07T00:32:21.146Z,16.53
2019-04-07T00:34:51.810Z,18.17
2019-04-07T00:37:21.878Z,17.40
2019-04-07T00:39:53.232Z,18.00
2019-04-07T00:42:29.210Z,17.67
2019-04-07T00:44:58.932Z,18.77
2019-04-07T00:47:29.677Z,17.27
2019-04-07T00:49:59.818Z,19.63
2019-04-07T00:52:29.567Z,17.20
2019-04-07T00:54:59.196Z,19.07
2019-04-07T00:57:28.858Z,19.07
2019-04-07T00:59:58.522Z,19.73
2019-04-07T01:02:28.572Z,18.53
2019-04-07T01:04:58.381Z,17.60
2019-04-07T01:07:28.515Z,17.87
2019-04-07T01:09:58.550Z,20.43
2019-04-07T01:12:30.255Z,16.37
2019-04-07T01:14:59.921Z,17.90
2019-04-07T01:17:30.245Z,17.47
2019-04-07T01:19:59.899Z,17.33
2019-04-07T01:22:29.791Z,16.77
2019-04-07T01:24:59.482Z,16.93
2019-04-07T01:27:29.085Z,17.83
2019-04-07T01:29:58.715Z,16.33
2019-04-07T01:32:29.004Z,17.23
2019-04-07T01:34:59.627Z,14.50
2019-04-07T01:37:30.709Z,14.30
2019-04-07T01:40:00.549Z,15.13
2019-04-07T01:43:01.062Z,13.87
2019-04-07T01:45:49.980Z,14.17
2019-04-07T01:48:37.018Z,13.93
2019-04-07T01:51:40.950Z,13.93
2019-04-07T01:54:35.376Z,14.93
2019-04-07T01:57:33.758Z,14.13
2019-04-07T02:00:25.776Z,15.00
2019-04-07T02:03:12.133Z,15.43
2019-04-07T02:06:07.719Z,15.60
2019-04-07T02:08:58.986Z,16.00
2019-04-07T02:11:46.274Z,15.00
2019-04-07T02:14:33.663Z,15.43
2019-04-07T02:17:25.214Z,15.63
2019-04-07T02:20:05.117Z,15.87
2019-04-07T02:22:48.664Z,16.43
2019-04-07T02:25:49.382Z,15.10
2019-04-07T02:28:50.400Z,15.67
2019-04-07T02:31:36.365Z,15.63
2019-04-07T02:34:27.900Z,15.23
2019-04-07T02:37:14.946Z,15.40
2019-04-07T02:40:06.321Z,15.77
2019-04-07T02:42:46.479Z,15.63
2019-04-07T02:45:24.791Z,16.53
2019-04-07T02:48:03.044Z,16.17
2019-04-07T02:51:09.663Z,16.70
2019-04-07T02:53:46.990Z,16.57
2019-04-07T02:56:34.150Z,16.00
2019-04-07T02:59:21.527Z,17.90
2019-04-07T03:02:02.991Z,17.07
2019-04-07T03:04:51.165Z,16.17
2019-04-07T03:07:33.069Z,17.00
2019-04-07T03:10:25.084Z,17.27
2019-04-07T03:13:16.831Z,16.73
2019-04-07T03:15:57.822Z,16.37
2019-04-07T03:18:52.825Z,17.53
2019-04-07T03:21:44.426Z,17.53
2019-04-07T03:24:36.830Z,17.73
2019-04-07T03:27:24.088Z,17.07
2019-04-07T03:30:09.337Z,16.63
2019-04-07T03:32:54.422Z,18.00
2019-04-07T03:35:48.524Z,16.07
2019-04-07T03:38:27.337Z,17.17
2019-04-07T03:41:29.133Z,17.77
2019-04-07T03:44:16.023Z,17.83
2019-04-07T03:46:59.928Z,17.37
2019-04-07T03:49:55.041Z,17.40
2019-04-07T03:52:52.782Z,18.63
2019-04-07T03:55:36.811Z,17.30
2019-04-07T03:58:28.403Z,17.70
2019-04-07T04:01:35.250Z,17.70
2019-04-07T04:04:22.356Z,16.90
2019-04-07T04:07:22.425Z,17.57
2019-04-07T04:09:50.430Z,17.93
2019-04-07T04:12:37.555Z,14.63
2019-04-07T04:15:20.447Z,18.57
2019-04-07T04:17:51.169Z,17.47
2019-04-07T04:20:21.568Z,18.17
2019-04-07T04:22:52.733Z,18.50
2019-04-07T04:25:23.155Z,17.47
2019-04-07T04:27:53.006Z,18.67
2019-04-07T04:30:22.686Z,18.47
2019-04-07T04:32:52.406Z,17.87
2019-04-07T04:35:22.431Z,18.97
2019-04-07T04:37:53.890Z,18.63
2019-04-07T04:40:24.268Z,18.53
2019-04-07T04:42:54.926Z,16.83
2019-04-07T04:45:24.694Z,18.37
2019-04-07T04:47:54.465Z,18.53
2019-04-07T04:50:25.717Z,19.23
2019-04-07T04:52:56.387Z,19.33
2019-04-07T04:55:26.186Z,18.90
2019-04-07T04:57:56.533Z,18.03
2019-04-07T05:00:26.649Z,18.17
2019-04-07T05:02:57.149Z,17.83
2019-04-07T05:05:28.009Z,19.17
2019-04-07T05:08:03.353Z,20.37
2019-04-07T05:10:29.064Z,18.80
2019-04-07T05:12:58.930Z,20.10
2019-04-07T05:15:28.778Z,17.83
2019-04-07T05:17:58.979Z,19.67
2019-04-07T05:20:28.743Z,19.63
2019-04-07T05:22:59.785Z,19.67
2019-04-07T05:25:29.615Z,20.73
2019-04-07T05:27:59.894Z,25.43
2019-04-07T05:30:29.817Z,30.47
2019-04-07T05:32:59.989Z,26.30
2019-04-07T05:35:29.888Z,21.37
2019-04-07T05:38:04.083Z,20.63
2019-04-07T05:40:31.974Z,20.40
2019-04-07T05:43:02.022Z,21.07
2019-04-07T05:45:31.755Z,19.73
2019-04-07T05:48:03.336Z,21.07
2019-04-07T05:50:33.456Z,19.53
2019-04-07T05:53:06.818Z,21.50
2019-04-07T05:55:37.205Z,22.27
2019-04-07T05:58:08.339Z,24.00
2019-04-07T06:00:39.173Z,22.37
2019-04-07T06:03:09.414Z,19.73
2019-04-07T06:05:40.025Z,20.93
2019-04-07T06:08:22.477Z,20.70
2019-04-07T06:10:41.229Z,21.00
2019-04-07T06:13:13.195Z,20.53
2019-04-07T06:15:42.355Z,21.23
2019-04-07T06:18:12.631Z,22.33
2019-04-07T06:20:44.202Z,21.50
2019-04-07T06:23:13.836Z,21.87
2019-04-07T06:25:44.040Z,20.53
2019-04-07T06:28:17.214Z,21.07
2019-04-07T06:30:46.240Z,20.60
2019-04-07T06:33:16.019Z,19.30
2019-04-07T06:35:47.365Z,19.00
2019-04-07T06:38:17.721Z,17.77
2019-04-07T06:40:50.809Z,17.40
2019-04-07T06:43:20.926Z,18.33
2019-04-07T06:46:09.656Z,18.63
2019-04-07T06:48:59.475Z,17.87
2019-04-07T06:51:42.684Z,19.53
2019-04-07T06:54:31.918Z,16.87
2019-04-07T06:57:19.442Z,16.57
2019-04-07T07:00:08.443Z,16.77
2019-04-07T07:02:47.854Z,16.00
2019-04-07T07:05:30.866Z,16.10
2019-04-07T07:08:10.136Z,16.33
2019-04-07T07:10:54.196Z,16.20
2019-04-07T07:13:44.688Z,17.03
2019-04-07T07:16:36.179Z,17.30
2019-04-07T07:19:31.534Z,17.53
2019-04-07T07:22:16.616Z,16.73
2019-04-07T07:24:47.420Z,16.80
2019-04-07T07:27:20.591Z,16.03
2019-04-07T07:29:52.819Z,14.03
2019-04-07T07:32:22.582Z,14.37
2019-04-07T07:34:54.250Z,15.30
2019-04-07T07:37:25.295Z,15.47
2019-04-07T07:39:55.459Z,15.90
2019-04-07T07:42:25.706Z,15.90
2019-04-07T07:44:56.018Z,14.80
2019-04-07T07:47:26.332Z,16.93
2019-04-07T07:49:56.153Z,16.03
2019-04-07T07:52:25.939Z,15.70
2019-04-07T07:54:59.897Z,16.80
2019-04-07T07:57:27.353Z,17.47
2019-04-07T07:59:57.378Z,16.50
2019-04-07T08:02:29.037Z,16.07
2019-04-07T08:04:59.262Z,15.53
2019-04-07T08:07:29.021Z,15.80
2019-04-07T08:09:59.570Z,15.10
2019-04-07T08:12:32.416Z,14.93
2019-04-07T08:15:01.681Z,16.07
2019-04-07T08:17:33.689Z,15.87
2019-04-07T08:20:03.345Z,16.80
2019-04-07T08:22:39.631Z,14.73
2019-04-07T08:25:05.305Z,14.83
2019-04-07T08:27:35.509Z,14.07
2019-04-07T08:30:10.165Z,15.70
2019-04-07T08:32:38.792Z,15.90
2019-04-07T08:35:08.738Z,14.47
2019-04-07T08:37:39.332Z,15.00
2019-04-07T08:40:17.437Z,14.97
2019-04-07T08:42:49.108Z,15.13
2019-04-07T08:45:19.664Z,13.10
2019-04-07T08:47:50.907Z,11.87
2019-04-07T08:50:22.477Z,13.03
2019-04-07T08:52:53.183Z,11.87
2019-04-07T08:55:23.679Z,11.87
2019-04-07T08:57:53.464Z,11.17
2019-04-07T09:00:26.093Z,11.67
2019-04-07T09:03:03.051Z,10.93
2019-04-07T09:05:31.144Z,11.80
2019-04-07T09:08:05.881Z,11.40
2019-04-07T09:10:48.759Z,10.43
2019-04-07T09:13:17.457Z,10.80
2019-04-07T09:16:06.116Z,10.57
2019-04-07T09:19:00.606Z,10.40
2019-04-07T09:21:38.738Z,10.10
2019-04-07T09:24:20.231Z,10.60
2019-04-07T09:26:59.279Z,11.27
2019-04-07T09:29:37.638Z,11.07
2019-04-07T09:32:14.603Z,10.77
2019-04-07T09:35:12.273Z,9.90
2019-04-07T09:38:03.911Z,15.87
2019-04-07T09:40:48.461Z,12.70
2019-04-07T09:43:35.828Z,12.77
2019-04-07T09:46:24.308Z,10.40
2019-04-07T09:49:00.146Z,10.30
2019-04-07T09:51:44.937Z,9.60
2019-04-07T09:54:38.905Z,9.77
2019-04-07T09:57:23.561Z,10.77
2019-04-07T10:00:06.739Z,10.00
2019-04-07T10:02:53.039Z,10.10
2019-04-07T10:05:35.978Z,10.23
2019-04-07T10:08:23.735Z,10.67
2019-04-07T10:11:16.008Z,9.87
2019-04-07T10:14:06.358Z,9.77
2019-04-07T10:16:57.797Z,10.10
2019-04-07T10:19:47.543Z,10.40
2019-04-07T10:22:42.953Z,10.83
2019-04-07T10:25:31.376Z,10.80
2019-04-07T10:28:32.326Z,11.13
2019-04-07T10:31:33.706Z,10.43
2019-04-07T10:34:16.665Z,10.93
2019-04-07T10:37:13.387Z,10.67
2019-04-07T10:40:16.358Z,10.35
2019-04-07T10:42:56.423Z,11.30
2019-04-07T10:45:32.930Z,11.40
2019-04-07T10:48:11.026Z,11.77
2019-04-07T10:51:06.777Z,10.83
2019-04-07T10:54:04.933Z,11.80
2019-04-07T10:56:54.167Z,9.93
2019-04-07T10:59:35.043Z,11.53
2019-04-07T11:02:22.654Z,9.93
2019-04-07T11:05:05.156Z,12.97
2019-04-07T11:07:54.785Z,11.20
2019-04-07T11:10:39.050Z,10.85
2019-04-07T11:13:22.003Z,11.50
2019-04-07T11:16:06.308Z,11.45
2019-04-07T11:18:55.058Z,11.30
2019-04-07T11:21:42.309Z,12.28
2019-04-07T11:24:43.385Z,12.00
2019-04-07T11:27:32.938Z,10.30
2019-04-07T11:30:18.116Z,12.33
2019-04-07T11:33:02.769Z,11.93
2019-04-07T11:35:55.340Z,10.93
2019-04-07T11:38:43.013Z,11.57
2019-04-07T11:41:37.771Z,13.50
2019-04-07T11:44:25.990Z,12.40
2019-04-07T11:47:24.130Z,11.93
2019-04-07T11:49:59.185Z,12.00
2019-04-07T11:52:53.651Z,10.93
2019-04-07T11:55:45.439Z,11.53
2019-04-07T11:58:31.239Z,10.63
2019-04-07T12:01:18.831Z,11.28
2019-04-07T12:04:02.474Z,9.83
2019-04-07T12:06:49.904Z,10.45
2019-04-07T12:09:44.203Z,9.98
2019-04-07T12:12:31.127Z,9.70
2019-04-07T12:15:14.151Z,10.00
2019-04-07T12:18:19.259Z,11.08
2019-04-07T12:21:03.448Z,11.08
2019-04-07T12:23:56.640Z,10.75
2019-04-07T12:26:54.899Z,10.10
2019-04-07T12:29:42.807Z,10.32
2019-04-07T12:32:25.959Z,10.78
2019-04-07T12:35:20.452Z,10.15
2019-04-07T12:38:12.304Z,10.28
2019-04-07T12:41:12.493Z,11.20
2019-04-07T12:44:08.003Z,9.28
2019-04-07T12:47:09.178Z,9.88
2019-04-07T12:49:56.138Z,10.53
2019-04-07T12:52:38.034Z,10.85
2019-04-07T12:55:33.287Z,11.25
2019-04-07T12:58:13.004Z,10.95
2019-04-07T13:01:12.123Z,11.15
2019-04-07T13:03:50.003Z,10.65
2019-04-07T13:06:44.937Z,10.32
2019-04-07T13:09:36.545Z,11.03
2019-04-07T13:12:25.935Z,9.13
2019-04-07T13:15:19.425Z,10.40
2019-04-07T13:18:07.331Z,10.30
2019-04-07T13:20:50.898Z,8.48
2019-04-07T13:23:43.832Z,8.88
2019-04-07T13:26:50.724Z,9.95
2019-04-07T13:29:42.077Z,10.00
2019-04-07T13:32:23.847Z,8.75
2019-04-07T13:35:22.634Z,10.20
2019-04-07T13:38:09.804Z,9.10
2019-04-07T13:41:03.020Z,9.30
2019-04-07T13:43:50.629Z,8.88
2019-04-07T13:46:42.346Z,8.53
2019-04-07T13:49:32.237Z,9.03
2019-04-07T13:52:31.182Z,8.45
2019-04-07T13:55:18.407Z,8.90
2019-04-07T13:58:12.945Z,8.58
2019-04-07T14:00:55.793Z,8.75
2019-04-07T14:03:43.616Z,8.83
2019-04-07T14:06:19.405Z,9.55
2019-04-07T14:09:16.981Z,8.65
2019-04-07T14:12:05.541Z,8.58
2019-04-07T14:14:47.153Z,8.23
2019-04-07T14:17:36.295Z,8.03
2019-04-07T14:20:24.651Z,8.65
2019-04-07T14:23:12.108Z,8.53
2019-04-07T14:26:06.681Z,8.15
2019-04-07T14:28:58.818Z,10.50
2019-04-07T14:31:39.063Z,9.05
2019-04-07T14:34:27.678Z,8.90
2019-04-07T14:37:28.861Z,8.95
2019-04-07T14:40:31.289Z,9.73
2019-04-07T14:43:25.968Z,9.30
2019-04-07T14:46:17.370Z,8.83
2019-04-07T14:49:13.477Z,9.23
2019-04-07T14:52:03.792Z,9.20
2019-04-07T14:54:56.995Z,9.48
2019-04-07T14:57:42.682Z,9.65
2019-04-07T15:00:30.210Z,8.43
2019-04-07T15:03:02.030Z,9.28
2019-04-07T15:05:34.215Z,9.05
2019-04-07T15:08:16.906Z,9.45
2019-04-07T15:10:50.180Z,9.38
2019-04-07T15:13:25.858Z,9.95
2019-04-07T15:15:56.085Z,9.95
2019-04-07T15:18:30.610Z,9.35
2019-04-07T15:21:00.547Z,9.05
2019-04-07T15:23:32.257Z,9.63
2019-04-07T15:26:02.186Z,10.15
2019-04-07T15:28:33.098Z,8.58
2019-04-07T15:31:04.259Z,9.05
2019-04-07T15:33:35.179Z,9.33
2019-04-07T15:36:09.139Z,9.15
2019-04-07T15:38:41.414Z,9.55
2019-04-07T15:41:15.743Z,9.50
2019-04-07T15:43:44.132Z,10.28
2019-04-07T15:46:16.747Z,11.57
2019-04-07T15:48:45.473Z,9.85
2019-04-07T15:51:18.220Z,9.75
2019-04-07T15:53:51.502Z,9.50
2019-04-07T15:56:20.882Z,9.28
2019-04-07T15:58:51.531Z,10.43
2019-04-07T16:01:25.005Z,8.90
2019-04-07T16:03:55.033Z,9.73
2019-04-07T16:06:25.967Z,9.00
2019-04-07T16:08:59.605Z,9.28
2019-04-07T16:11:30.339Z,8.90
2019-04-07T16:13:59.943Z,9.75
2019-04-07T16:16:30.683Z,9.40
2019-04-07T16:19:01.649Z,8.75
2019-04-07T16:21:31.377Z,9.43
2019-04-07T16:24:02.919Z,8.43
2019-04-07T16:26:35.900Z,10.32
2019-04-07T16:29:05.049Z,9.13
2019-04-07T16:31:36.861Z,9.15
2019-04-07T16:34:08.626Z,9.30
2019-04-07T16:36:38.047Z,9.48
2019-04-07T16:39:09.625Z,9.25
2019-04-07T16:41:44.178Z,9.10
2019-04-07T16:44:12.169Z,8.63
2019-04-07T16:46:44.366Z,9.68
2019-04-07T16:49:16.925Z,9.55
2019-04-07T16:51:45.715Z,11.88
2019-04-07T16:54:16.642Z,12.03
2019-04-07T16:56:50.800Z,11.08
2019-04-07T16:59:19.269Z,11.93
2019-04-07T17:01:49.767Z,9.50
2019-04-07T17:04:20.131Z,10.88
2019-04-07T17:06:59.500Z,9.68
2019-04-07T17:09:24.748Z,10.10
2019-04-07T17:11:53.594Z,9.38
2019-04-07T17:14:26.835Z,9.55
2019-04-07T17:16:56.884Z,9.00
2019-04-07T17:19:27.590Z,9.13
2019-04-07T17:22:00.298Z,9.30
2019-04-07T17:24:30.558Z,8.38
2019-04-07T17:27:03.302Z,10.60
2019-04-07T17:29:33.145Z,9.73
2019-04-07T17:32:03.822Z,10.98
2019-04-07T17:34:33.659Z,8.00
2019-04-07T17:37:07.126Z,10.13
2019-04-07T17:39:48.253Z,7.95
2019-04-07T17:42:20.131Z,11.05
2019-04-07T17:45:07.760Z,9.83
2019-04-07T17:47:57.235Z,9.68
2019-04-07T17:50:37.194Z,8.53
2019-04-07T17:53:26.508Z,10.25
2019-04-07T17:56:20.139Z,9.10
2019-04-07T17:59:12.160Z,9.35
2019-04-07T18:02:07.460Z,10.40
2019-04-07T18:04:50.073Z,12.35
2019-04-07T18:07:43.504Z,11.97
2019-04-07T18:10:30.703Z,10.80
2019-04-07T18:13:21.745Z,12.40
2019-04-07T18:15:59.811Z,13.18
2019-04-07T18:19:06.821Z,11.63
2019-04-07T18:22:13.786Z,11.97
2019-04-07T18:25:03.732Z,11.63
2019-04-07T18:27:55.680Z,15.60
2019-04-07T18:30:48.415Z,12.50
2019-04-07T18:33:37.924Z,10.93
2019-04-07T18:36:34.766Z,11.30
2019-04-07T18:39:39.770Z,12.53
2019-04-07T18:42:18.158Z,10.63
2019-04-07T18:45:05.247Z,10.77
2019-04-07T18:47:56.764Z,12.60
2019-04-07T18:50:37.007Z,12.13
2019-04-07T18:53:18.829Z,13.28
2019-04-07T18:56:11.548Z,13.60
2019-04-07T18:59:09.576Z,13.57
2019-04-07T19:02:01.467Z,18.80
2019-04-07T19:04:48.931Z,26.70
2019-04-07T19:07:25.601Z,28.23
2019-04-07T19:10:12.940Z,27.97
2019-04-07T19:13:06.455Z,30.53
2019-04-07T19:15:51.654Z,30.57
2019-04-07T19:18:55.193Z,26.23
2019-04-07T19:21:45.089Z,22.70
2019-04-07T19:24:23.895Z,21.57
2019-04-07T19:27:21.161Z,24.97
2019-04-07T19:30:20.858Z,25.10
2019-04-07T19:33:12.473Z,23.40
2019-04-07T19:35:59.395Z,28.43
2019-04-07T19:38:49.745Z,56.70
2019-04-07T19:41:47.483Z,50.27
2019-04-07T19:44:38.524Z,69.37
2019-04-07T19:47:12.060Z,43.40
2019-04-07T19:50:04.835Z,35.53
2019-04-07T19:52:43.570Z,30.03
2019-04-07T19:55:38.879Z,26.87
2019-04-07T19:58:19.762Z,22.90
2019-04-07T20:01:06.325Z,18.03
2019-04-07T20:03:54.526Z,16.97
2019-04-07T20:06:59.631Z,16.03
2019-04-07T20:09:51.367Z,14.43
2019-04-07T20:12:46.643Z,13.63
2019-04-07T20:15:39.049Z,13.93
2019-04-07T20:18:44.700Z,15.20
2019-04-07T20:21:38.050Z,15.03
2019-04-07T20:24:19.991Z,14.03
2019-04-07T20:27:06.467Z,15.23
2019-04-07T20:29:43.783Z,15.00
2019-04-07T20:32:36.146Z,15.70
2019-04-07T20:35:31.798Z,14.23
2019-04-07T20:38:09.185Z,14.37
2019-04-07T20:41:04.101Z,13.40
2019-04-07T20:43:46.437Z,14.13
2019-04-07T20:46:57.030Z,13.50
2019-04-07T20:49:48.197Z,13.90
2019-04-07T20:52:46.084Z,13.33
2019-04-07T20:55:39.685Z,13.40
2019-04-07T20:58:31.189Z,13.33
2019-04-07T21:01:22.335Z,12.73
2019-04-07T21:04:10.633Z,12.90
2019-04-07T21:06:48.491Z,13.50
2019-04-07T21:09:46.763Z,12.00
2019-04-07T21:12:35.288Z,9.93
2019-04-07T21:15:43.194Z,11.37
2019-04-07T21:18:34.899Z,12.00
2019-04-07T21:21:22.056Z,11.70
2019-04-07T21:24:18.995Z,12.23
2019-04-07T21:27:07.770Z,12.67
2019-04-07T21:30:02.452Z,13.47
2019-04-07T21:32:50.787Z,11.00
2019-04-07T21:35:43.539Z,11.63
2019-04-07T21:38:39.051Z,12.87
2019-04-07T21:41:18.782Z,12.17
2019-04-07T21:44:27.042Z,13.00
2019-04-07T21:47:14.000Z,13.43
2019-04-07T21:50:05.392Z,12.90
2019-04-07T21:52:39.262Z,13.40
2019-04-07T21:55:26.607Z,13.33
2019-04-07T21:58:30.081Z,13.50
2019-04-07T22:01:16.726Z,13.13
2019-04-07T22:03:52.427Z,13.37
2019-04-07T22:06:40.034Z,14.20
2019-04-07T22:09:20.547Z,13.77
2019-04-07T22:11:50.207Z,13.63
2019-04-07T22:14:20.796Z,13.90
2019-04-07T22:16:51.253Z,14.10
2019-04-07T22:19:21.052Z,14.27
2019-04-07T22:21:54.481Z,13.20
2019-04-07T22:24:22.216Z,15.07
2019-04-07T22:26:51.842Z,15.57
2019-04-07T22:29:22.448Z,15.77
2019-04-07T22:31:55.508Z,15.90
2019-04-07T22:34:25.266Z,15.37
2019-04-07T22:36:56.404Z,13.80
2019-04-07T22:39:29.786Z,14.27
2019-04-07T22:42:00.094Z,13.87
2019-04-07T22:44:29.872Z,13.73
2019-04-07T22:46:59.557Z,14.67
2019-04-07T22:49:31.930Z,14.67
2019-04-07T22:52:01.278Z,16.00
2019-04-07T22:54:31.408Z,27.63
2019-04-07T22:57:01.132Z,17.93
2019-04-07T22:59:30.876Z,14.93
2019-04-07T23:02:00.568Z,14.03
2019-04-07T23:04:30.209Z,14.67
2019-04-07T23:07:00.745Z,14.23
2019-04-07T23:09:31.361Z,15.37
2019-04-07T23:12:02.207Z,15.20
2019-04-07T23:14:32.430Z,13.00
2019-04-07T23:17:02.125Z,14.83
2019-04-07T23:19:32.236Z,13.77
2019-04-07T23:22:01.937Z,14.67
2019-04-07T23:24:31.937Z,13.33
2019-04-07T23:27:01.953Z,14.37
2019-04-07T23:29:32.442Z,14.13
2019-04-07T23:32:02.067Z,14.60
2019-04-07T23:34:31.695Z,14.80
2019-04-07T23:37:01.798Z,14.60
2019-04-07T23:39:31.525Z,15.63
2019-04-07T23:42:01.473Z,14.67
2019-04-07T23:44:31.761Z,14.57
2019-04-07T23:47:01.375Z,15.43
2019-04-07T23:49:31.206Z,14.40
2019-04-07T23:52:00.904Z,14.10
2019-04-07T23:54:31.016Z,14.83
2019-04-07T23:57:00.994Z,14.80
2019-04-07T23:59:30.603Z,14.17
